Goudge, Argentina
Current Conditions -  °F | °C
As of 1:00 PM on Thursday 30 Oct 2014 (Local Time) from SAME Reporting Station
Clear Clear  
Wind Chill: 25°   Ceiling: Unl
Heat Index: 25°   Visibility: 6mi
Dew Point:   Wind: 3mph
Humidity: 24%   Direction: 20°NNE
Pressure: 29.77"   Gusts: NA
Location:  34.67°S, 68.13°W
Report Text: SAME 301600Z 02003KT CAVOK 25/03 Q1008
Loading
Personal Weather Stations






























Interactive Weather Map
Tropical Storm Tracking
New forecast layout! Learn more

10-Day Weather Forecast

Advertisements
Track Severe Weather on mobile